Time;durP1;ratioP1;P1;durP2;ratioP2;P2;SDS_P1;SDS_P2;PMS_P1;PMS_P2;Temp;Humidity;BMP_temperature;BMP_pressure;BME280_temperature;BME280_humidity;BME280_pressure;Samples;Min_cycle;Max_cycle;Signal;HPM_P1;HPM_P2
2022/11/12 00:01:17;;;;;;;;;;;11.70;68.70;;;6.98;100.00;97118.78;4976271;28;20331;-50
2022/11/12 00:03:52;;;;;;;;;;;11.80;68.80;;;6.98;100.00;97106.34;4971365;28;20108;-49
2022/11/12 00:06:17;;;;;;;;;;;11.80;68.70;;;7.01;100.00;97105.94;4972335;28;19960;-50
2022/11/12 00:08:43;;;;;;;;;;;11.80;68.70;;;7.00;100.00;97108.81;4989323;28;19945;-52
2022/11/12 00:11:09;;;;;;;;;;;11.80;68.70;;;7.01;100.00;97099.84;4969724;28;19953;-51
2022/11/12 00:13:35;;;;;;;;;;;11.80;68.70;;;7.03;100.00;97101.25;4996142;28;20306;-54
2022/11/12 00:16:07;;;;;;;;;;;11.80;68.70;;;7.05;100.00;97101.03;4953390;28;20373;-53
2022/11/12 00:18:32;;;;;;;;;;;11.80;68.70;;;7.05;100.00;97103.69;4955441;28;19968;-51
2022/11/12 00:21:01;;;;;;;;;;;11.80;68.70;;;7.05;100.00;97109.84;4973049;28;19910;-50
2022/11/12 00:23:27;;;;;;;;;;;11.80;68.70;;;7.06;100.00;97105.34;4989659;28;19909;-49
2022/11/12 00:26:01;;;;;;;;;;;11.80;68.60;;;7.05;100.00;97101.03;4982103;28;20196;-49
2022/11/12 00:28:30;;;;;;;;;;;11.80;68.60;;;7.09;100.00;97105.75;4971162;28;20284;-48
2022/11/12 00:30:55;;;;;;;;;;;11.90;68.70;;;7.08;100.00;97101.47;4984319;28;19947;-48
2022/11/12 00:33:21;;;;;;;;;;;11.90;68.70;;;7.06;100.00;97103.50;4974600;28;20446;-51
2022/11/12 00:35:50;;;;;;;;;;;11.90;68.70;;;7.05;100.00;97107.19;4969828;28;20276;-51
2022/11/12 00:38:15;;;;;;;;;;;11.90;68.60;;;7.07;100.00;97106.97;4955043;28;19932;-50
2022/11/12 00:40:41;;;;;;;;;;;11.90;68.60;;;7.04;100.00;97110.84;4969631;28;19914;-50
2022/11/12 00:43:10;;;;;;;;;;;11.90;68.60;;;7.04;100.00;97116.13;4981510;28;19932;-52
2022/11/12 00:45:35;;;;;;;;;;;11.90;68.60;;;7.05;100.00;97111.66;4970829;28;19918;-54
2022/11/12 00:48:01;;;;;;;;;;;11.90;68.60;;;7.04;100.00;97116.13;4937745;28;20266;-57
2022/11/12 00:50:27;;;;;;;;;;;11.90;68.50;;;7.01;100.00;97115.72;4980326;28;19917;-55
2022/11/12 00:52:53;;;;;;;;;;;11.80;68.50;;;7.05;100.00;97122.25;4971221;28;19916;-54
2022/11/12 00:55:25;;;;;;;;;;;11.80;68.50;;;7.08;100.00;97120.03;4980933;28;19913;-54
2022/11/12 00:57:53;;;;;;;;;;;11.80;68.60;;;7.09;100.00;97112.88;4973314;28;19913;-55
2022/11/12 01:00:20;;;;;;;;;;;11.80;68.60;;;7.08;100.00;97112.06;4972124;28;20372;-53
2022/11/12 01:02:52;;;;;;;;;;;11.90;68.70;;;7.07;100.00;97113.06;4971788;28;19913;-50
2022/11/12 01:05:19;;;;;;;;;;;11.80;68.60;;;7.07;100.00;97109.63;4954705;28;19918;-55
2022/11/12 01:07:45;;;;;;;;;;;11.80;68.60;;;7.08;100.00;97112.06;4957286;28;19909;-54
2022/11/12 01:10:13;;;;;;;;;;;11.80;68.60;;;7.09;100.00;97113.69;4956189;28;20284;-53
2022/11/12 01:12:39;;;;;;;;;;;11.80;68.60;;;7.07;100.00;97118.38;4979354;28;19910;-56
2022/11/12 01:15:09;;;;;;;;;;;11.90;68.70;;;7.11;100.00;97116.13;4971035;28;19939;-53
2022/11/12 01:17:35;;;;;;;;;;;11.90;68.70;;;7.13;100.00;97111.44;4973949;28;19952;-50
2022/11/12 01:20:00;;;;;;;;;;;11.90;69.50;;;7.09;100.00;97104.94;4976892;28;20007;-57
2022/11/12 01:22:26;;;;;;;;;;;11.90;68.70;;;7.06;100.00;97098.22;4940784;28;19924;-51
2022/11/12 01:24:52;;;;;;;;;;;11.90;68.60;;;7.09;100.00;97097.81;4951384;28;19918;-55
2022/11/12 01:27:18;;;;;;;;;;;11.80;68.50;;;7.09;100.00;97094.34;4974528;28;19917;-54
2022/11/12 01:29:46;;;;;;;;;;;11.80;68.60;;;7.08;100.00;97088.22;4956806;28;19980;-55
2022/11/12 01:32:18;;;;;;;;;;;11.80;68.60;;;7.08;100.00;97084.75;4962987;28;19910;-55
2022/11/12 01:34:44;;;;;;;;;;;11.80;68.70;;;7.09;100.00;97083.75;4973834;28;19913;-54
2022/11/12 01:37:13;;;;;;;;;;;11.80;68.70;;;7.10;100.00;97080.06;4958331;28;19929;-52
2022/11/12 01:39:41;;;;;;;;;;;11.80;68.80;;;7.10;100.00;97080.88;4973586;28;20008;-57
2022/11/12 01:42:07;;;;;;;;;;;11.80;68.80;;;7.10;100.00;97083.53;4956718;28;19910;-53
2022/11/12 01:44:40;;;;;;;;;;;11.80;68.80;;;7.12;100.00;97078.03;4978691;28;20027;-55
2022/11/12 01:47:28;;;;;;;;;;;11.90;68.80;;;7.10;100.00;97086.16;4956813;28;19968;-52
2022/11/12 01:50:37;;;;;;;;;;;11.90;68.80;;;7.11;100.00;97079.88;4971164;28;20295;-52
2022/11/12 01:53:10;;;;;;;;;;;11.90;68.80;;;7.10;100.00;97075.56;4991121;28;19913;-48
2022/11/12 01:55:37;;;;;;;;;;;11.80;68.70;;;7.12;100.00;97075.38;4990476;28;20295;-51
2022/11/12 01:58:21;;;;;;;;;;;11.90;68.80;;;7.15;100.00;97075.78;4975267;28;19909;-55
2022/11/12 02:00:53;;;;;;;;;;;11.90;68.80;;;7.15;100.00;97070.47;4958412;28;19913;-48
2022/11/12 02:03:23;;;;;;;;;;;11.90;68.80;;;7.13;100.00;97066.41;4993067;28;20012;-52
2022/11/12 02:05:58;;;;;;;;;;;11.90;68.70;;;7.17;100.00;97071.06;4991312;28;19921;-53
2022/11/12 02:08:26;;;;;;;;;;;11.90;68.80;;;7.17;100.00;97068.41;4982188;28;19913;-54
2022/11/12 02:10:54;;;;;;;;;;;11.90;68.70;;;7.19;100.00;97070.88;4956056;28;20012;-54
2022/11/12 02:16:10;;;;;;;;;;;11.90;68.70;;;7.16;100.00;97076.59;4964603;28;19917;-49
2022/11/12 02:18:35;;;;;;;;;;;11.90;68.70;;;7.15;100.00;97062.53;4987566;28;19909;-52
2022/11/12 02:21:08;;;;;;;;;;;11.90;68.70;;;7.11;100.00;97065.78;4992332;28;19932;-52
2022/11/12 02:23:33;;;;;;;;;;;11.90;68.70;;;7.12;100.00;97059.47;4974899;28;19909;-51
2022/11/12 02:26:00;;;;;;;;;;;11.90;68.70;;;7.10;100.00;97058.88;4982086;28;20304;-52
2022/11/12 02:28:30;;;;;;;;;;;11.90;68.70;;;7.05;100.00;97062.16;4955305;28;19913;-54
2022/11/12 02:30:58;;;;;;;;;;;11.90;68.60;;;7.08;100.00;97071.50;4952045;28;20040;-50
2022/11/12 02:33:24;;;;;;;;;;;11.80;68.60;;;7.08;100.00;97069.69;4992334;28;19917;-54
2022/11/12 02:35:53;;;;;;;;;;;11.80;68.70;;;7.06;100.00;97073.56;4974458;28;20444;-48
2022/11/12 02:38:24;;;;;;;;;;;11.80;68.70;;;7.04;100.00;97065.78;4991187;28;19914;-51
2022/11/12 02:40:51;;;;;;;;;;;11.80;68.70;;;7.02;100.00;97062.56;4990779;28;20473;-48
2022/11/12 02:43:16;;;;;;;;;;;11.80;68.80;;;7.03;100.00;97064.16;4953991;28;19976;-52
2022/11/12 02:45:57;;;;;;;;;;;11.80;68.90;;;7.05;100.00;97062.16;4972125;28;19914;-48
2022/11/12 02:48:23;;;;;;;;;;;11.80;68.90;;;7.09;100.00;97065.19;4975576;28;19949;-50
2022/11/12 02:50:49;;;;;;;;;;;11.80;69.70;;;7.12;100.00;97068.25;4990315;28;19952;-51
2022/11/12 02:53:26;;;;;;;;;;;11.80;69.00;;;7.13;100.00;97064.56;4972874;28;20299;-48
2022/11/12 02:55:52;;;;;;;;;;;11.80;68.90;;;7.08;100.00;97056.44;4968468;28;20012;-48
2022/11/12 02:58:21;;;;;;;;;;;11.80;69.00;;;6.99;100.00;97054.19;4973924;28;20436;-52
2022/11/12 03:00:53;;;;;;;;;;;11.80;68.90;;;7.02;100.00;97056.41;4992128;28;19913;-49
2022/11/12 03:03:22;;;;;;;;;;;11.80;68.90;;;7.04;100.00;97057.84;4955230;28;20004;-52
2022/11/12 03:06:00;;;;;;;;;;;11.80;68.90;;;7.09;100.00;97058.06;4972176;28;19914;-51
2022/11/12 03:08:26;;;;;;;;;;;11.80;69.00;;;7.10;100.00;97062.31;4977847;28;20047;-55
2022/11/12 03:11:10;;;;;;;;;;;11.80;69.00;;;7.11;100.00;97063.13;4938626;28;19914;-50
2022/11/12 03:13:54;;;;;;;;;;;11.80;69.10;;;7.13;100.00;97053.97;4950765;28;20471;-52
2022/11/12 03:16:20;;;;;;;;;;;11.80;69.10;;;7.14;100.00;97052.94;4991571;28;20626;-50
2022/11/12 03:18:46;;;;;;;;;;;11.80;69.10;;;7.17;100.00;97049.06;4985170;28;19914;-51
2022/11/12 03:21:25;;;;;;;;;;;11.90;69.10;;;7.17;100.00;97052.50;4971376;28;19913;-50
2022/11/12 03:23:54;;;;;;;;;;;11.90;69.10;;;7.19;100.00;97053.13;4972768;28;19920;-51
2022/11/12 03:26:20;;;;;;;;;;;11.90;69.10;;;7.17;100.00;97046.41;4977068;28;19928;-51
2022/11/12 03:28:50;;;;;;;;;;;11.90;69.10;;;7.16;100.00;97050.91;4953958;28;19921;-48
2022/11/12 03:31:19;;;;;;;;;;;11.90;69.10;;;7.19;100.00;97045.19;4973929;28;19932;-53
2022/11/12 03:33:48;;;;;;;;;;;11.90;69.10;;;7.19;100.00;97037.22;4964500;28;20420;-54
2022/11/12 03:36:14;;;;;;;;;;;11.90;69.10;;;7.19;100.00;97036.41;4953483;28;20018;-51
2022/11/12 03:38:48;;;;;;;;;;;11.90;69.00;;;7.24;100.00;97035.78;4952019;28;19918;-52
2022/11/12 03:41:14;;;;;;;;;;;11.90;69.10;;;7.23;100.00;97034.97;4967340;28;19918;-48
2022/11/12 03:43:40;;;;;;;;;;;11.90;69.10;;;7.23;100.00;97034.16;4963683;28;19910;-51
2022/11/12 03:46:06;;;;;;;;;;;11.90;69.10;;;7.24;100.00;97035.78;4971492;28;19918;-50
2022/11/12 03:48:31;;;;;;;;;;;11.90;69.20;;;7.27;100.00;97028.25;4982147;28;20366;-49
2022/11/12 03:50:58;;;;;;;;;;;12.00;69.20;;;7.27;100.00;97038.88;4971917;28;19914;-52
2022/11/12 03:53:27;;;;;;;;;;;11.90;69.10;;;7.25;100.00;97027.63;4935504;28;20481;-55
2022/11/12 03:55:53;;;;;;;;;;;12.00;69.20;;;7.26;100.00;97039.88;4952422;28;19917;-52
2022/11/12 03:58:22;;;;;;;;;;;12.00;69.20;;;7.24;100.00;97030.47;4952096;28;19910;-50
2022/11/12 04:00:51;;;;;;;;;;;12.00;69.20;;;7.26;100.00;97041.69;4922107;28;19910;-52
2022/11/12 04:03:25;;;;;;;;;;;12.00;69.20;;;7.29;100.00;97039.44;4951041;29;19910;-49
2022/11/12 04:08:38;;;;;;;;;;;12.00;69.20;;;7.31;100.00;97033.97;4965158;28;19917;-50
2022/11/12 04:11:15;;;;;;;;;;;12.10;69.30;;;7.30;100.00;97029.66;4985901;28;20400;-49
2022/11/12 04:13:46;;;;;;;;;;;12.00;69.20;;;7.29;100.00;97031.50;4977685;28;19968;-49
2022/11/12 04:22:03;;;;;;;;;;;12.10;69.30;;;7.33;100.00;97019.47;4970769;28;19948;-55
2022/11/12 04:27:30;;;;;;;;;;;12.10;69.20;;;7.32;100.00;97019.66;4951116;29;19925;-55
2022/11/12 04:33:02;;;;;;;;;;;12.00;70.00;;;7.34;100.00;97014.97;4971499;28;19921;-51
2022/11/12 04:35:27;;;;;;;;;;;12.00;69.30;;;7.32;100.00;97012.53;4971748;28;19917;-52
2022/11/12 04:37:54;;;;;;;;;;;12.00;69.30;;;7.32;100.00;97011.72;4952062;28;20360;-50
2022/11/12 04:46:09;;;;;;;;;;;12.10;69.40;;;7.35;100.00;97006.81;4975049;28;20284;-52
2022/11/12 04:48:34;;;;;;;;;;;12.10;69.40;;;7.36;100.00;97010.25;4961855;28;19920;-54
2022/11/12 04:52:03;;;;;;;;;;;12.10;69.40;;;7.32;100.00;97012.53;4977923;28;19909;-54
2022/11/12 04:53:54;;;;;;;;;;;12.10;69.40;;;7.28;100.00;97013.97;4960630;28;20522;-50
2022/11/12 04:56:19;;;;;;;;;;;12.00;69.30;;;7.30;100.00;97009.28;4983131;28;20008;-50
2022/11/12 04:58:45;;;;;;;;;;;12.10;69.40;;;7.30;100.00;97004.00;4956574;28;19997;-51
2022/11/12 05:01:23;;;;;;;;;;;12.10;69.30;;;7.26;100.00;96997.47;4978137;28;19910;-51
2022/11/12 05:03:52;;;;;;;;;;;12.00;69.20;;;7.29;100.00;97001.53;4974620;28;19956;-51
2022/11/12 05:09:10;;;;;;;;;;;12.00;69.30;;;7.29;100.00;96989.09;4973867;28;19952;-52
2022/11/12 05:11:48;;;;;;;;;;;12.00;69.30;;;7.30;100.00;96996.03;4957284;28;20011;-53
2022/11/12 05:14:15;;;;;;;;;;;12.00;69.30;;;7.29;100.00;96989.09;4957062;28;20368;-49
2022/11/12 05:16:40;;;;;;;;;;;12.10;69.40;;;7.25;100.00;96993.19;4941789;28;19914;-52
2022/11/12 05:19:12;;;;;;;;;;;12.10;69.30;;;7.24;100.00;96993.38;4976333;28;20369;-48
2022/11/12 05:24:24;;;;;;;;;;;12.10;69.20;;;7.13;100.00;96990.34;4977126;28;19964;-53
2022/11/12 05:26:53;;;;;;;;;;;12.00;69.20;;;7.17;100.00;96991.56;4978020;28;20292;-50
2022/11/12 05:29:20;;;;;;;;;;;12.00;69.20;;;7.14;100.00;96994.63;4958043;28;20293;-49
2022/11/12 05:31:46;;;;;;;;;;;12.00;69.20;;;7.14;100.00;96999.94;4971522;28;19921;-50
2022/11/12 05:34:12;;;;;;;;;;;11.90;69.20;;;7.15;100.00;96982.22;4979433;28;19910;-51
2022/11/12 05:36:44;;;;;;;;;;;12.00;69.30;;;7.15;100.00;96988.31;4961052;28;20323;-50
2022/11/12 05:39:13;;;;;;;;;;;12.00;69.30;;;7.15;100.00;96985.69;4973796;28;19913;-51
2022/11/12 05:41:48;;;;;;;;;;;12.00;69.40;;;7.15;100.00;96998.94;4972662;28;20456;-52
2022/11/12 05:44:14;;;;;;;;;;;11.90;69.30;;;7.16;100.00;96997.91;4974284;28;20380;-54
2022/11/12 05:46:40;;;;;;;;;;;11.90;69.30;;;7.15;100.00;96992.81;4981341;28;20633;-51
2022/11/12 05:49:06;;;;;;;;;;;11.90;69.30;;;7.16;100.00;96997.09;4972075;28;20372;-50
2022/11/12 05:51:31;;;;;;;;;;;11.90;69.30;;;7.13;100.00;96990.34;4990574;28;20371;-48
2022/11/12 05:53:58;;;;;;;;;;;11.90;69.40;;;7.12;100.00;96994.03;4980164;28;19914;-55
2022/11/12 05:56:23;;;;;;;;;;;11.90;69.40;;;7.10;100.00;97003.22;4991083;28;19932;-52
2022/11/12 05:58:49;;;;;;;;;;;11.80;69.40;;;7.12;100.00;96999.34;4989252;28;19925;-48
2022/11/12 06:01:18;;;;;;;;;;;11.80;69.40;;;7.13;100.00;97005.44;4980488;28;19909;-49
2022/11/12 06:03:44;;;;;;;;;;;11.80;69.50;;;7.10;100.00;97006.66;4945162;28;19921;-53
2022/11/12 06:06:10;;;;;;;;;;;11.80;69.50;;;7.04;100.00;97012.00;4971837;28;19918;-53
2022/11/12 06:08:35;;;;;;;;;;;11.80;69.50;;;6.97;100.00;97019.16;4979185;28;19929;-51
2022/11/12 06:11:01;;;;;;;;;;;11.80;69.50;;;6.92;100.00;97017.09;4938828;28;20336;-52
2022/11/12 06:13:30;;;;;;;;;;;11.70;69.40;;;6.83;100.00;97021.81;4972070;28;19941;-50
2022/11/12 06:15:57;;;;;;;;;;;11.70;69.40;;;6.77;100.00;97022.63;4981028;28;19935;-52
2022/11/12 06:18:26;;;;;;;;;;;11.60;69.40;;;6.65;100.00;97022.44;4963846;28;19920;-54
2022/11/12 06:21:18;;;;;;;;;;;11.60;69.50;;;6.62;100.00;97024.69;4973964;28;19936;-49
2022/11/12 06:23:45;;;;;;;;;;;11.50;69.50;;;6.68;100.00;97031.81;4992014;28;20014;-54
2022/11/12 06:26:18;;;;;;;;;;;11.50;69.50;;;6.66;100.00;97028.53;4973534;28;20063;-51
2022/11/12 06:28:46;;;;;;;;;;;11.40;69.60;;;6.65;100.00;97029.56;4991174;28;20281;-49
2022/11/12 06:31:16;;;;;;;;;;;11.40;69.60;;;6.67;100.00;97028.31;4972562;28;19917;-52
2022/11/12 06:33:43;;;;;;;;;;;11.40;69.70;;;6.59;100.00;97025.91;4968150;28;19914;-48
2022/11/12 06:36:12;;;;;;;;;;;11.40;69.80;;;6.59;100.00;97030.38;4939294;28;19910;-55
2022/11/12 06:38:40;;;;;;;;;;;11.40;69.80;;;6.58;100.00;97036.69;4984885;28;19910;-55
2022/11/12 06:41:09;;;;;;;;;;;11.40;69.80;;;6.54;100.00;97030.97;4953980;28;19913;-51
2022/11/12 06:43:36;;;;;;;;;;;11.30;69.80;;;6.57;100.00;97024.47;4964346;28;19920;-48
2022/11/12 06:46:15;;;;;;;;;;;11.30;69.80;;;6.34;100.00;97028.31;4971596;28;20332;-54
2022/11/12 06:48:41;;;;;;;;;;;11.30;69.80;;;6.30;100.00;97032.41;4976776;28;19917;-48
2022/11/12 06:51:19;;;;;;;;;;;11.30;69.70;;;6.28;100.00;97034.44;4978763;28;20289;-50
2022/11/12 06:53:46;;;;;;;;;;;11.20;69.70;;;6.31;100.00;97023.44;4961969;28;19917;-48
2022/11/12 06:56:13;;;;;;;;;;;11.20;69.70;;;6.34;100.00;97017.75;4987472;28;20004;-48
2022/11/12 06:58:40;;;;;;;;;;;11.20;69.70;;;6.37;100.00;97027.94;4972891;28;19910;-49
2022/11/12 07:01:18;;;;;;;;;;;11.20;69.70;;;6.40;100.00;97030.16;4970825;28;19957;-51
2022/11/12 07:03:51;;;;;;;;;;;11.20;69.80;;;6.35;100.00;97032.59;4954320;28;20024;-49
2022/11/12 07:06:19;;;;;;;;;;;11.20;69.80;;;6.36;100.00;97025.47;4939708;28;19913;-49
2022/11/12 07:08:49;;;;;;;;;;;11.20;69.70;;;6.41;100.00;97028.34;4972407;28;20394;-48
2022/11/12 07:11:17;;;;;;;;;;;11.20;69.70;;;6.44;100.00;97026.09;4971090;28;20373;-50
2022/11/12 07:13:44;;;;;;;;;;;11.20;69.70;;;6.48;100.00;97023.84;4988255;28;19913;-51
2022/11/12 07:16:12;;;;;;;;;;;11.20;69.70;;;6.51;100.00;97033.22;4971989;28;19971;-50
2022/11/12 07:18:39;;;;;;;;;;;11.30;69.80;;;6.47;100.00;97033.63;4973871;28;19915;-51
2022/11/12 07:21:12;;;;;;;;;;;11.40;69.80;;;6.46;100.00;97041.78;4953695;28;19916;-48
2022/11/12 07:23:39;;;;;;;;;;;11.40;69.80;;;6.44;100.00;97057.03;4954250;28;19983;-50
2022/11/12 07:26:17;;;;;;;;;;;11.40;69.70;;;6.19;100.00;97064.75;4948431;28;19914;-48
2022/11/12 07:28:45;;;;;;;;;;;11.40;69.60;;;6.21;100.00;97058.25;4976314;28;19917;-53
2022/11/12 07:31:17;;;;;;;;;;;11.30;69.50;;;6.23;100.00;97048.25;4995862;28;19917;-52
2022/11/12 07:33:47;;;;;;;;;;;11.30;69.50;;;6.22;100.00;97057.22;4942138;28;20000;-57
2022/11/12 07:36:17;;;;;;;;;;;11.20;69.40;;;6.22;100.00;97053.75;4973400;28;20253;-51
2022/11/12 07:38:44;;;;;;;;;;;11.20;69.40;;;6.26;100.00;97047.03;4971130;28;19910;-51
2022/11/12 07:41:19;;;;;;;;;;;11.20;69.50;;;6.23;100.00;97053.53;4977751;28;19909;-53
2022/11/12 07:43:48;;;;;;;;;;;11.30;69.60;;;6.21;100.00;97047.66;4963577;28;19916;-48
2022/11/12 07:46:27;;;;;;;;;;;11.30;69.50;;;6.20;100.00;97043.34;4980589;28;20384;-51
2022/11/12 07:48:55;;;;;;;;;;;11.30;69.40;;;6.24;100.00;97039.31;4958984;28;19960;-52
2022/11/12 07:51:28;;;;;;;;;;;11.30;69.30;;;6.28;100.00;97039.72;4977436;28;19936;-54
2022/11/12 07:53:57;;;;;;;;;;;11.30;69.30;;;6.32;100.00;97033.00;4979889;28;19916;-54
2022/11/12 07:56:26;;;;;;;;;;;11.30;69.20;;;6.34;100.00;97028.31;4971989;28;19917;-55
2022/11/12 07:58:58;;;;;;;;;;;11.40;69.30;;;6.31;100.00;97041.16;4956959;28;19920;-53
2022/11/12 08:01:35;;;;;;;;;;;11.40;69.20;;;6.32;100.00;97045.41;4956348;28;19971;-52
2022/11/12 08:04:09;;;;;;;;;;;11.50;69.10;;;6.31;100.00;97044.59;4972642;28;20020;-49
2022/11/12 08:06:35;;;;;;;;;;;11.50;69.00;;;6.14;100.00;97054.78;4973483;28;19953;-50
2022/11/12 08:09:10;;;;;;;;;;;11.50;68.90;;;6.13;100.00;97060.25;4974559;28;19910;-53
2022/11/12 08:11:40;;;;;;;;;;;11.50;68.80;;;6.26;100.00;97063.72;4954423;28;19960;-49
2022/11/12 08:14:09;;;;;;;;;;;11.60;68.80;;;6.29;100.00;97054.56;4988551;28;20357;-50
2022/11/12 08:16:35;;;;;;;;;;;11.60;68.80;;;6.43;100.00;97055.41;4994933;28;19996;-52
2022/11/12 08:19:00;;;;;;;;;;;11.70;69.00;;;6.53;100.00;97060.31;4991090;28;20008;-55
2022/11/12 08:21:29;;;;;;;;;;;11.70;68.90;;;6.59;100.00;97062.97;4958317;28;20338;-48
2022/11/12 08:23:55;;;;;;;;;;;11.80;69.00;;;6.62;100.00;97067.84;4958562;28;20364;-48
2022/11/12 08:26:21;;;;;;;;;;;11.90;68.90;;;6.66;100.00;97062.97;4993419;28;19971;-52
2022/11/12 08:28:46;;;;;;;;;;;11.90;68.70;;;6.70;100.00;97056.22;4977001;28;19909;-48
2022/11/12 08:31:20;;;;;;;;;;;12.00;68.60;;;6.78;100.00;97052.59;4980370;28;19917;-50
2022/11/12 08:33:47;;;;;;;;;;;12.10;68.60;;;6.89;100.00;97054.59;4994566;28;19916;-49
2022/11/12 08:36:15;;;;;;;;;;;12.20;68.50;;;6.87;100.00;97056.66;4993856;28;20417;-52
2022/11/12 08:38:44;;;;;;;;;;;12.40;68.50;;;6.91;100.00;97057.88;4994353;28;19909;-51
2022/11/12 08:41:16;;;;;;;;;;;12.50;68.40;;;7.01;100.00;97052.97;4976840;28;19909;-48
2022/11/12 08:43:42;;;;;;;;;;;12.60;68.20;;;7.07;99.71;97040.72;4985363;28;19937;-50
2022/11/12 08:46:09;;;;;;;;;;;12.70;68.10;;;7.06;98.94;97049.69;4973745;28;19976;-49
2022/11/12 08:48:35;;;;;;;;;;;12.70;67.80;;;7.13;99.36;97053.97;4976936;28;19917;-48
2022/11/12 08:51:03;;;;;;;;;;;12.80;67.70;;;7.25;99.30;97054.16;4976929;28;19909;-51
2022/11/12 08:53:58;;;;;;;;;;;12.90;67.60;;;7.41;98.77;97051.03;4977461;28;20008;-52
2022/11/12 08:56:27;;;;;;;;;;;13.00;67.50;;;7.46;98.52;97054.91;4985924;28;19909;-54
2022/11/12 08:58:55;;;;;;;;;;;13.10;67.50;;;7.51;98.40;97053.25;4957171;28;20352;-57
2022/11/12 09:01:21;;;;;;;;;;;13.10;67.40;;;7.58;97.98;97061.19;4976136;28;19936;-55
2022/11/12 09:03:53;;;;;;;;;;;13.10;67.20;;;7.62;97.45;97057.09;4956997;28;19996;-55
2022/11/12 09:06:24;;;;;;;;;;;13.20;67.20;;;7.53;96.60;97061.81;4975932;28;19914;-54
2022/11/12 09:08:50;;;;;;;;;;;13.20;67.00;;;7.56;96.71;97050.81;4993888;28;20317;-56
2022/11/12 09:11:33;;;;;;;;;;;13.20;67.00;;;7.57;96.16;97052.41;4992592;28;19914;-55
2022/11/12 09:14:02;;;;;;;;;;;13.20;66.80;;;7.60;96.07;97065.25;4977624;28;19960;-51
2022/11/12 09:16:28;;;;;;;;;;;13.20;66.70;;;7.54;94.87;97067.94;4976886;28;19909;-53
2022/11/12 09:18:54;;;;;;;;;;;13.20;66.70;;;7.53;95.28;97061.81;4988156;28;19919;-55
2022/11/12 09:21:23;;;;;;;;;;;13.20;66.60;;;7.57;95.17;97064.88;4957193;28;19921;-56
2022/11/12 09:24:01;;;;;;;;;;;13.20;66.60;;;7.47;94.75;97054.69;4974256;28;19909;-51
2022/11/12 09:26:30;;;;;;;;;;;13.20;66.50;;;7.55;94.42;97056.28;4975160;28;19913;-50
2022/11/12 09:29:05;;;;;;;;;;;13.20;66.60;;;7.53;95.43;97047.75;4993765;28;20348;-53
2022/11/12 09:31:30;;;;;;;;;;;13.30;66.40;;;7.58;94.94;97046.09;4992573;28;19940;-55
2022/11/12 09:33:59;;;;;;;;;;;13.30;66.40;;;7.62;94.45;97042.00;4992867;28;19909;-52
2022/11/12 09:36:28;;;;;;;;;;;13.30;66.30;;;7.34;94.44;97052.91;4989840;28;19917;-49
2022/11/12 09:38:54;;;;;;;;;;;13.30;66.10;;;7.45;95.18;97054.09;4956961;28;20292;-54
2022/11/12 09:41:36;;;;;;;;;;;13.30;66.00;;;7.39;94.96;97050.44;4975926;28;19913;-49
2022/11/12 09:44:09;;;;;;;;;;;13.30;66.00;;;7.40;95.00;97057.38;4992703;28;19910;-48
2022/11/12 09:47:15;;;;;;;;;;;13.30;65.80;;;7.46;94.57;97070.81;4960345;28;20370;-48
2022/11/12 09:50:26;;;;;;;;;;;13.30;65.80;;;7.27;94.63;97062.72;4976051;28;20009;-53
2022/11/12 09:53:10;;;;;;;;;;;13.30;65.80;;;7.30;95.21;97072.06;4956638;28;19916;-49
2022/11/12 09:55:42;;;;;;;;;;;13.30;65.70;;;7.05;94.17;97078.03;4969011;28;19936;-50
2022/11/12 09:58:17;;;;;;;;;;;13.20;65.60;;;7.12;95.15;97075.38;4975993;28;20173;-50
2022/11/12 10:01:05;;;;;;;;;;;13.20;65.70;;;7.31;95.68;97071.06;4975430;28;19916;-48
2022/11/12 10:04:12;;;;;;;;;;;13.20;65.80;;;7.35;93.78;97067.78;4957124;28;19920;-52
2022/11/12 10:07:01;;;;;;;;;;;13.30;65.70;;;7.35;92.40;97059.81;4981646;28;19948;-48
2022/11/12 10:10:08;;;;;;;;;;;13.40;65.60;;;7.50;93.19;97064.09;4973587;28;19910;-49
2022/11/12 10:13:08;;;;;;;;;;;13.50;65.50;;;7.68;91.02;97058.91;4973193;28;19916;-51
2022/11/12 10:19:31;;;;;;;;;;;13.80;65.20;;;7.79;90.00;97060.09;4975334;28;20006;-51
2022/11/12 10:22:23;;;;;;;;;;;13.90;65.00;;;7.83;89.29;97058.63;4972636;28;19909;-48
2022/11/12 10:24:49;;;;;;;;;;;14.00;64.90;;;7.85;90.38;97046.78;4962336;28;19914;-48
2022/11/12 10:27:27;;;;;;;;;;;14.10;64.70;;;7.93;87.44;97042.25;4904982;28;21283;-50
2022/11/12 10:29:58;;;;;;;;;;;14.20;65.40;;;7.97;87.84;97044.28;4961759;28;21801;-50
2022/11/12 10:32:23;;;;;;;;;;;14.30;64.40;;;8.06;88.23;97043.03;4972271;28;19909;-51
2022/11/12 10:34:55;;;;;;;;;;;14.30;64.20;;;8.20;87.59;97042.94;4991348;28;19975;-47
2022/11/12 10:38:01;;;;;;;;;;;14.40;64.20;;;8.32;87.09;97041.22;4992033;28;19925;-50
2022/11/12 10:40:38;;;;;;;;;;;14.50;64.10;;;8.45;85.65;97032.38;4980221;28;19909;-49
2022/11/12 10:43:16;;;;;;;;;;;14.60;64.10;;;8.49;85.03;97030.91;4994747;28;19913;-53
2022/11/12 10:45:49;;;;;;;;;;;14.70;63.90;;;8.57;85.12;97023.50;5012056;28;19913;-48
2022/11/12 10:48:27;;;;;;;;;;;14.80;63.70;;;8.65;84.12;97019.78;4976523;28;19913;-54
2022/11/12 10:50:54;;;;;;;;;;;14.80;63.50;;;8.72;83.77;97015.22;4987689;28;19970;-52
2022/11/12 10:53:34;;;;;;;;;;;15.00;63.30;;;8.75;83.49;97013.97;4994365;28;19916;-51
2022/11/12 10:56:29;;;;;;;;;;;15.00;63.10;;;8.87;82.78;97012.25;4977638;28;19910;-51
2022/11/12 10:59:18;;;;;;;;;;;15.10;62.90;;;8.85;83.32;97008.16;4976274;28;19909;-52
2022/11/12 11:01:57;;;;;;;;;;;15.20;62.80;;;8.96;82.91;97010.94;4967156;28;19920;-49
2022/11/12 11:04:32;;;;;;;;;;;15.30;62.70;;;9.06;80.78;97005.09;4993688;28;20093;-49
2022/11/12 11:07:23;;;;;;;;;;;15.40;62.60;;;9.15;80.72;97008.25;4987054;28;20340;-48
2022/11/12 11:09:59;;;;;;;;;;;15.70;62.40;;;9.22;81.02;96998.38;4999584;28;19991;-50
2022/11/12 11:12:33;;;;;;;;;;;16.00;62.10;;;9.38;81.12;96995.13;4974031;28;19953;-52
2022/11/12 11:15:22;;;;;;;;;;;16.20;61.70;;;9.62;79.74;96998.75;4984909;28;19919;-51
2022/11/12 11:17:51;;;;;;;;;;;16.50;61.60;;;9.79;79.13;96996.28;5011137;28;19909;-51
2022/11/12 11:20:50;;;;;;;;;;;16.80;61.30;;;9.72;77.75;96988.38;4990303;28;19910;-50
2022/11/12 11:24:04;;;;;;;;;;;16.90;61.00;;;9.77;78.47;96994.88;4990373;28;20281;-51
2022/11/12 11:26:57;;;;;;;;;;;17.00;60.90;;;9.73;77.61;96991.84;4972602;28;19917;-55
2022/11/12 11:29:47;;;;;;;;;;;17.00;60.60;;;9.87;77.92;96976.50;5008529;28;19922;-51
2022/11/12 11:32:34;;;;;;;;;;;17.00;60.40;;;10.01;78.16;96974.50;4988524;28;19917;-54
2022/11/12 11:35:50;;;;;;;;;;;17.10;60.30;;;10.19;77.20;96969.09;4990404;28;19956;-52
2022/11/12 11:38:43;;;;;;;;;;;17.30;60.20;;;10.53;75.90;96964.91;4990316;28;19960;-48
2022/11/12 11:41:29;;;;;;;;;;;17.60;60.20;;;10.86;73.95;96969.66;4990053;28;19916;-50
2022/11/12 11:44:34;;;;;;;;;;;18.10;60.00;;;11.20;73.87;96964.53;4990438;28;19917;-49
2022/11/12 11:47:50;;;;;;;;;;;18.50;59.90;;;11.48;72.63;96965.63;4991008;28;19924;-50
2022/11/12 11:50:33;;;;;;;;;;;19.20;59.60;;;11.83;71.73;96949.50;4989432;28;19913;-52
2022/11/12 11:53:17;;;;;;;;;;;19.80;59.00;;;11.93;69.50;96946.22;4974719;28;19962;-51
2022/11/12 11:56:04;;;;;;;;;;;20.20;58.70;;;12.15;69.22;96947.16;4990331;28;20012;-50
2022/11/12 11:59:00;;;;;;;;;;;20.50;58.20;;;12.42;68.74;96947.34;4989070;28;19910;-53
2022/11/12 12:01:53;;;;;;;;;;;20.80;57.60;;;12.60;66.17;96935.59;4988506;28;20004;-50
2022/11/12 12:04:52;;;;;;;;;;;21.10;57.30;;;12.71;67.09;96940.03;4989314;28;19964;-56
2022/11/12 12:07:40;;;;;;;;;;;21.30;56.90;;;12.70;65.82;96943.75;4987952;28;19913;-48
2022/11/12 12:10:26;;;;;;;;;;;21.60;56.60;;;12.76;65.47;96939.31;4987966;28;19952;-56
2022/11/12 12:13:32;;;;;;;;;;;21.60;56.30;;;13.15;66.16;96939.28;4971851;28;19943;-52
2022/11/12 12:16:21;;;;;;;;;;;21.70;56.10;;;13.07;66.11;96937.88;4991650;28;19956;-53
2022/11/12 12:18:55;;;;;;;;;;;21.80;55.80;;;13.07;64.98;96934.41;4982990;28;19949;-57